Pagina principale
METAR-TAF:

METAR-TAF

Aeroporti :

Nakhchivan, Azerbaigian

latitudine: 39-11-19N, longitudine: 045-27-30E, altezza: 873 m

Osservazione

Il bollettino è stato emesso 54 minuti fa, alle 01:00 UTC
Vento 4 kt da nord/nord-est
Temperature 6°C
Umidità 61%
Pressione 1019 hPa
Visibilità 10 km o più

METAR: UBBN 250100Z 02004KT 9999 NSC 06/M01 Q1019 R14R/CLRD// NOSIG RMK MT OP QFE689

Ora: 05:54 (01:54 UTC)

Previsione

Il bollettino è stato emesso 2 ore e 54 minuti fa, alle 23:00 UTC
Previsione valida dal 25 alle 00 UTC al 25 alle 24 UTC
Vento 2 kt da direzioni variabili
Visibilità 10 km o più
Poco nuvoloso ad un'altezza di 5000 ft
Nubi sparse ad un'altezza di 10000 ft
Temporaneamente
dal 25 alle 00 UTC al 25 alle 05 UTC
Vento 10 kt da nord/nord-est
Temporaneamente
dal 25 alle 08 UTC al 25 alle 15 UTC
Vento 10 kt da sud-est

TAF: UBBN 242300Z 2500/2524 VRB02KT 9999 FEW050 SCT100 TX24/2512Z TN08/2503Z TEMPO 2500/2505 03010KT TEMPO 2508/2515 13010KT

Osservazioni e previsioni meteorologiche di più di 4000 aeroporti (messaggi METAR e TAF).

Le stazioni disponibili sono rappresentate dai dischi gialli e rossi sulla carta.

Puntare il mouse per vedere il nome della stazione.

Clicca sopra per visualizzare le osservazioni e previsioni meteorologiche.

Per cambiare la mappa : fare clic sui pulsanti verdi con una croce nera per ingrandire, il pulsante verde con un trattino per diminuire, o sulla freccia verde per le mappe adiacenti.


METAR-TAF: